Painted Rocks, Iowa
Current Conditions -  °F | °C
As of 7:55 AM on Wednesday 26 Nov 2014 (Local Time) from KPEA Reporting Station
Light Snow Light Snow  
Wind Chill: 18°   Ceiling: 1400
Heat Index: 28°   Visibility: 4mi
Dew Point: 26°   Wind: 12mph
Humidity: 90%   Direction: 120°ESE
Pressure: 29.92"   Gusts: 16mph
Location:  41.4592°N, 93.0401°W
Report Text: KPEA 261355Z AUTO 12010G14KT 4SM -SN SCT005 OVC014 M02/M03 A2992 RMK AO2 T10201035
Loading
Personal Weather Stations






























Interactive Weather Map New forecast layout! Learn more

10-Day Weather Forecast

Advertisements
Track Severe Weather on mobile